Aplicació Alertes

Dades de l'estació automàtica Tivissa

?
?
Resum diari 23:00 TU
Dades diàries de l'estació meteorològica
Temperatura mitjana 8.3 °C
Temperatura màxima 13.5 °C 14:18 TU
Temperatura mínima 4.6 °C 6:41 TU
Humitat relativa mitjana 63%
Precipitació acumulada 0.0 mm
Ratxa màxima del vent (10 m) 21.2 km/h - 354º 10:46 TU
Irradiació solar global 10.9 MJ/m2

El tram horari està expressat en Temps Universal (TU). Cal sumar una hora en horari d'hivern i dues en horari d'estiu per passar a l'hora oficial.

Tivissa

Metadades estació meteorol´gica
Municipi Tivissa
Comarca Ribera d'Ebre
Altitud 317 m
Data alta 26.03.2015
Estat actual Operativa
Dades de període
Període
TU
TM
°C
TX
°C
TN
°C
HRM
%
PPT
mm
VVM (10 m)
km/h
DVM (10 m)
graus
VVX (10 m)
km/h
RS
W/m2
00:00 - 00:30 7.6 7.9 7.2 75 0.0 1.4 223 4.0 0
00:30 - 01:00 7.8 8.3 7.1 75 0.0 2.2 245 7.9 0
01:00 - 01:30 7.2 7.8 6.7 77 0.0 1.4 232 4.0 0
01:30 - 02:00 6.5 6.9 6.0 81 0.0 1.4 220 4.7 0
02:00 - 02:30 6.9 7.5 6.4 79 0.0 1.4 244 3.2 0
02:30 - 03:00 6.4 6.9 5.9 80 0.0 1.8 191 5.4 0
03:00 - 03:30 6.5 7.0 6.1 80 0.0 1.1 200 4.3 0
03:30 - 04:00 6.5 6.9 6.0 79 0.0 2.9 238 5.4 0
04:00 - 04:30 6.5 7.0 6.1 78 0.0 2.2 257 6.1 0
04:30 - 05:00 5.9 6.1 5.3 81 0.0 4.3 245 7.9 0
05:00 - 05:30 6.0 6.3 5.7 80 0.0 3.6 250 7.6 0
05:30 - 06:00 5.7 5.9 5.5 81 0.0 2.5 245 5.0 0
06:00 - 06:30 5.2 5.5 5.0 83 0.0 1.8 239 5.4 0
06:30 - 07:00 5.0 5.4 4.6 85 0.0 1.8 246 5.0 3
07:00 - 07:30 5.5 5.9 5.2 82 0.0 1.8 252 7.9 22
07:30 - 08:00 6.1 7.4 5.2 79 0.0 2.5 137 8.3 92
08:00 - 08:30 8.1 8.6 7.4 70 0.0 2.9 89 7.9 185
08:30 - 09:00 8.9 9.4 8.6 67 0.0 2.2 279 7.6 280
09:00 - 09:30 9.5 10.1 9.0 65 0.0 4.3 296 11.9 352
09:30 - 10:00 9.7 10.1 9.2 64 0.0 5.8 340 13.0 414
10:00 - 10:30 10.0 10.3 9.7 61 0.0 6.8 344 16.2 458
10:30 - 11:00 10.1 10.4 9.9 60 0.0 10.1 347 21.2 498
11:00 - 11:30 10.7 11.2 10.1 57 0.0 10.4 354 20.2 522
11:30 - 12:00 11.3 11.8 11.0 53 0.0 9.4 334 19.1 526
12:00 - 12:30 11.9 12.3 11.5 51 0.0 9.4 326 21.2 518
12:30 - 13:00 12.1 12.7 11.7 51 0.0 8.6 324 17.6 494
13:00 - 13:30 12.5 12.8 12.1 49 0.0 9.0 323 19.1 454
13:30 - 14:00 12.8 13.4 12.5 48 0.0 8.3 330 16.2 402
14:00 - 14:30 13.2 13.5 12.9 46 0.0 7.2 338 15.8 336
14:30 - 15:00 13.2 13.4 13.1 44 0.0 9.0 326 15.8 267
15:00 - 15:30 13.3 13.4 13.2 41 0.0 8.6 323 14.4 179
15:30 - 16:00 13.1 13.4 12.3 43 0.0 5.0 296 10.8 87
16:00 - 16:30 10.9 12.1 9.1 52 0.0 4.3 214 6.1 21
16:30 - 17:00 8.6 9.2 7.5 58 0.0 1.8 202 6.5 0
17:00 - 17:30 7.6 8.4 7.2 59 0.0 3.6 115 7.9 0
17:30 - 18:00 7.1 7.3 6.9 60 0.0 2.2 110 8.3 0
18:00 - 18:30 7.0 7.4 6.6 58 0.0 1.8 143 5.4 0
18:30 - 19:00 7.0 7.2 6.6 56 0.0 1.4 176 5.0 0
19:00 - 19:30 6.9 7.3 6.6 52 0.0 1.1 185 4.3 0
19:30 - 20:00 7.1 7.8 6.5 49 0.0 2.2 194 5.4 0
20:00 - 20:30 6.6 7.2 5.9 51 0.0 0.4 188 2.5 0
20:30 - 21:00 6.9 7.4 6.4 50 0.0 0.4 217 3.2 0
21:00 - 21:30 7.0 7.4 6.3 50 0.0 0.7 173 3.2 0
21:30 - 22:00 6.1 6.8 5.5 54 0.0 0.7 133 4.0 0
22:00 - 22:30 5.8 6.7 5.1 55 0.0 1.4 105 4.7 0
22:30 - 23:00 6.3 7.1 5.6 54 0.0 1.4 151 6.1 0
23:00 - 23:30 5.9 6.8 5.4 56 0.0 2.9 161 7.2 0

Les dades en taronja només han passat un control de qualitat automàtic. Resta pendent la seva validació definitiva.